Time;durP1;ratioP1;P1;durP2;ratioP2;P2;SDS_P1;SDS_P2;PMS_P1;PMS_P2;Temp;Humidity;BMP_temperature;BMP_pressure;BME280_temperature;BME280_humidity;BME280_pressure;Samples;Min_cycle;Max_cycle;Signal;HPM_P1;HPM_P2
2022/08/12 00:43:23;;;;;;;4.38;2.90;;;17.30;75.70;;;;;;5031699;28;20059;-59
2022/08/12 00:48:35;;;;;;;3.88;2.60;;;17.20;76.40;;;;;;5031617;28;20047;-59
2022/08/12 00:51:01;;;;;;;4.03;2.70;;;17.20;77.00;;;;;;5030884;28;20021;-59
2022/08/12 00:53:29;;;;;;;6.70;3.42;;;17.10;77.10;;;;;;5030246;28;20029;-59
2022/08/12 00:55:57;;;;;;;5.60;2.97;;;17.10;77.20;;;;;;5030722;28;20021;-59
2022/08/12 00:58:25;;;;;;;4.78;2.65;;;17.10;77.40;;;;;;5030376;28;20105;-59
2022/08/12 01:00:51;;;;;;;4.63;2.83;;;17.10;77.50;;;;;;5030522;28;20485;-59
2022/08/12 01:03:21;;;;;;;5.05;3.50;;;17.10;77.50;;;;;;5029565;28;20044;-59
2022/08/12 01:11:33;;;;;;;4.85;3.08;;;17.00;78.50;;;;;;5030992;28;20405;-59
2022/08/12 01:14:00;;;;;;;5.68;2.83;;;16.90;78.60;;;;;;5029891;28;20458;-59
2022/08/12 01:16:26;;;;;;;6.13;3.67;;;16.90;79.10;;;;;;5030897;28;20036;-58
2022/08/12 01:18:55;;;;;;;4.20;2.33;;;16.80;79.50;;;;;;5031152;28;20022;-59
2022/08/12 01:21:26;;;;;;;4.47;2.95;;;16.80;79.90;;;;;;5030158;28;20518;-58
2022/08/12 01:24:29;;;;;;;5.72;3.22;;;16.80;80.00;;;;;;5030772;28;20018;-60
2022/08/12 01:26:57;;;;;;;4.80;2.92;;;16.70;80.40;;;;;;5030025;28;20041;-65
2022/08/12 01:29:26;;;;;;;6.90;3.10;;;16.70;80.60;;;;;;5030930;28;20159;-62
2022/08/12 01:31:55;;;;;;;4.88;2.92;;;16.70;81.00;;;;;;5029368;28;20033;-62
2022/08/12 01:34:38;;;;;;;6.55;3.35;;;16.70;81.00;;;;;;5030168;28;20474;-65
2022/08/12 01:37:06;;;;;;;4.15;2.72;;;16.70;81.00;;;;;;5030559;28;20021;-65
2022/08/12 01:39:38;;;;;;;6.13;2.95;;;16.70;81.30;;;;;;5029373;28;20187;-62
2022/08/12 01:42:07;;;;;;;6.32;3.15;;;16.70;81.60;;;;;;5028580;28;20025;-64
2022/08/12 01:44:34;;;;;;;5.32;3.10;;;16.70;82.20;;;;;;5030902;28;20024;-65
2022/08/12 01:47:31;;;;;;;7.50;3.40;;;16.70;82.20;;;;;;5030345;28;20116;-65
2022/08/12 01:50:19;;;;;;;6.95;3.60;;;16.70;82.50;;;;;;5029418;28;20394;-67
2022/08/12 01:53:02;;;;;;;5.35;3.38;;;16.60;82.60;;;;;;5030569;28;20033;-59
2022/08/12 01:55:32;;;;;;;7.03;3.50;;;16.70;82.60;;;;;;5027683;28;20021;-59
2022/08/12 01:58:06;;;;;;;6.45;3.67;;;16.70;83.30;;;;;;5030158;28;20450;-60
2022/08/12 02:00:47;;;;;;;5.28;3.38;;;16.60;83.10;;;;;;5030540;28;20095;-59
2022/08/12 02:12:35;;;;;;;6.25;3.70;;;16.60;84.20;;;;;;5033031;28;20114;-60
2022/08/12 02:15:22;;;;;;;5.40;3.35;;;16.60;84.80;;;;;;5032323;28;20029;-59
2022/08/12 02:18:05;;;;;;;6.22;3.75;;;16.50;85.00;;;;;;5032032;28;20025;-59
2022/08/12 02:20:56;;;;;;;5.50;3.40;;;16.50;85.00;;;;;;5033858;28;20119;-59
2022/08/12 02:23:25;;;;;;;4.95;3.33;;;16.50;85.50;;;;;;5033192;28;20030;-59
2022/08/12 02:25:54;;;;;;;5.97;3.13;;;16.50;86.20;;;;;;5031992;28;20030;-60
2022/08/12 02:28:20;;;;;;;5.07;3.30;;;16.50;86.00;;;;;;5034017;28;20099;-59
2022/08/12 02:30:45;;;;;;;8.27;4.05;;;16.40;86.40;;;;;;5033027;28;20049;-59
2022/08/12 02:33:12;;;;;;;6.20;3.67;;;16.40;86.80;;;;;;5033332;28;20053;-59
2022/08/12 02:35:38;;;;;;;7.20;3.75;;;16.40;87.20;;;;;;5033625;28;20091;-59
2022/08/12 02:38:07;;;;;;;6.65;3.70;;;16.40;87.90;;;;;;5032527;28;20379;-59
2022/08/12 02:40:37;;;;;;;5.72;3.92;;;16.40;87.50;;;;;;5032862;28;20029;-58
2022/08/12 02:43:20;;;;;;;6.60;3.80;;;16.40;88.20;;;;;;5035474;28;20029;-59
2022/08/12 02:46:03;;;;;;;5.10;3.50;;;16.40;88.10;;;;;;5041375;28;20036;-59
2022/08/12 02:48:40;;;;;;;5.10;3.65;;;16.40;87.90;;;;;;5033407;28;20144;-59
2022/08/12 02:51:09;;;;;;;6.32;3.58;;;16.40;88.30;;;;;;5032403;28;20472;-59
2022/08/12 02:53:37;;;;;;;6.55;3.72;;;16.30;88.50;;;;;;5031844;28;20497;-59
2022/08/12 02:56:04;;;;;;;7.18;3.90;;;16.30;88.90;;;;;;5033195;28;20036;-59
2022/08/12 02:58:34;;;;;;;5.43;3.70;;;16.20;89.10;;;;;;5032687;28;20075;-59
2022/08/12 03:01:02;;;;;;;6.88;3.50;;;16.10;89.30;;;;;;5032948;28;20029;-59
2022/08/12 03:03:32;;;;;;;6.72;4.30;;;16.00;89.60;;;;;;5032953;28;20067;-59
2022/08/12 03:06:13;;;;;;;6.22;3.85;;;16.00;90.00;;;;;;5032023;28;20064;-59
2022/08/12 03:08:42;;;;;;;6.22;3.97;;;16.00;90.20;;;;;;5033042;28;20021;-59
2022/08/12 03:11:35;;;;;;;8.25;3.92;;;16.00;90.30;;;;;;5031262;28;20025;-60
2022/08/12 03:14:02;;;;;;;7.15;4.05;;;16.00;90.40;;;;;;5031982;28;20474;-59
2022/08/12 03:16:31;;;;;;;8.63;3.60;;;15.90;90.80;;;;;;5032878;28;20017;-60
2022/08/12 03:18:58;;;;;;;6.50;3.53;;;15.80;90.50;;;;;;5032630;28;20056;-61
2022/08/12 03:21:24;;;;;;;5.63;3.80;;;15.80;90.60;;;;;;5031507;28;20068;-60
2022/08/12 03:23:53;;;;;;;6.95;4.07;;;15.80;90.80;;;;;;5032502;28;20049;-59
2022/08/12 03:26:23;;;;;;;7.30;3.72;;;15.70;91.00;;;;;;5032000;28;20132;-59
2022/08/12 03:28:49;;;;;;;7.75;4.22;;;15.70;91.20;;;;;;5032353;28;20068;-60
2022/08/12 03:31:17;;;;;;;11.38;4.15;;;15.70;91.30;;;;;;5032697;28;20033;-60
2022/08/12 03:33:45;;;;;;;6.68;4.65;;;15.60;91.60;;;;;;5030576;28;20045;-67
2022/08/12 03:36:15;;;;;;;6.50;4.20;;;15.60;91.70;;;;;;5032475;28;20033;-67
2022/08/12 03:38:43;;;;;;;5.80;4.28;;;15.50;91.90;;;;;;5032526;28;20379;-64
2022/08/12 03:41:34;;;;;;;6.57;4.20;;;15.40;92.00;;;;;;5031928;28;20466;-68
2022/08/12 04:01:05;;;;;;;5.22;3.85;;;15.40;93.00;;;;;;5048674;28;20094;-59
2022/08/12 04:04:07;;;;;;;7.03;4.65;;;15.50;92.90;;;;;;5041996;28;20025;-58
2022/08/12 04:06:29;;;;;;;8.80;5.10;;;15.40;92.90;;;;;;5034288;28;20136;-61
2022/08/12 04:08:57;;;;;;;8.10;5.05;;;15.50;93.00;;;;;;5035025;28;20065;-59
2022/08/12 04:14:16;;;;;;;7.53;4.63;;;15.50;93.30;;;;;;5044971;28;20040;-60
2022/08/12 04:16:42;;;;;;;8.25;4.80;;;15.50;93.30;;;;;;5041988;28;20044;-60
2022/08/12 04:19:08;;;;;;;8.00;5.28;;;15.50;93.30;;;;;;5047983;28;20458;-59
2022/08/12 04:21:35;;;;;;;7.60;5.10;;;15.50;93.40;;;;;;5050399;28;20033;-62
2022/08/12 04:24:01;;;;;;;7.53;4.80;;;15.50;93.20;;;;;;5032283;28;20021;-59
2022/08/12 04:26:29;;;;;;;8.30;4.68;;;15.50;93.40;;;;;;5030835;28;20401;-60
2022/08/12 04:28:57;;;;;;;6.50;4.53;;;15.50;93.30;;;;;;5031015;28;20382;-59
2022/08/12 04:31:34;;;;;;;7.07;4.18;;;15.40;93.30;;;;;;5045353;28;20036;-58
2022/08/12 04:34:01;;;;;;;6.32;4.28;;;15.40;93.40;;;;;;5035162;28;20033;-59
2022/08/12 04:36:28;;;;;;;7.88;4.90;;;15.40;93.40;;;;;;5045216;28;20084;-58
2022/08/12 04:38:54;;;;;;;7.30;4.95;;;15.30;93.80;;;;;;5041318;28;20051;-59
2022/08/12 04:41:20;;;;;;;6.07;4.05;;;15.20;93.80;;;;;;5036583;28;20025;-61
2022/08/12 04:43:46;;;;;;;7.28;5.25;;;15.20;93.90;;;;;;5032871;28;20027;-60
2022/08/12 04:46:13;;;;;;;8.00;4.80;;;15.20;93.90;;;;;;5049945;28;20036;-59
2022/08/12 04:48:39;;;;;;;8.05;4.95;;;15.10;94.10;;;;;;5042992;28;20021;-59
2022/08/12 04:51:05;;;;;;;7.78;5.28;;;15.20;94.10;;;;;;5030374;28;20026;-59
2022/08/12 04:53:31;;;;;;;7.18;5.28;;;15.20;94.30;;;;;;5032353;28;20033;-59
2022/08/12 04:55:57;;;;;;;9.55;5.68;;;15.20;94.20;;;;;;5048032;28;20040;-59
2022/08/12 04:58:23;;;;;;;8.35;5.05;;;15.20;94.30;;;;;;5049265;28;20033;-56
2022/08/12 05:00:49;;;;;;;9.27;5.25;;;15.20;94.20;;;;;;5042106;28;20021;-58
2022/08/12 05:03:15;;;;;;;8.60;5.70;;;15.30;94.30;;;;;;5038223;28;20128;-58
2022/08/12 05:05:42;;;;;;;6.72;4.43;;;15.30;94.30;;;;;;5043659;28;20037;-59
2022/08/12 05:08:12;;;;;;;9.80;5.70;;;15.40;94.30;;;;;;5044047;28;20482;-58
2022/08/12 05:10:38;;;;;;;7.73;5.20;;;15.40;94.30;;;;;;5050405;28;20029;-59
2022/08/12 05:13:07;;;;;;;8.23;4.78;;;15.50;94.40;;;;;;5048850;28;20270;-59
2022/08/12 05:15:38;;;;;;;7.72;5.18;;;15.50;94.40;;;;;;5048692;28;20282;-58
2022/08/12 05:18:04;;;;;;;7.70;5.00;;;15.60;94.20;;;;;;5048036;28;20028;-59
2022/08/12 05:20:29;;;;;;;9.35;5.57;;;15.70;94.10;;;;;;5049176;28;20021;-58
2022/08/12 05:23:09;;;;;;;8.63;5.68;;;15.80;94.00;;;;;;5049772;28;20260;-56
2022/08/12 05:25:35;;;;;;;9.45;6.07;;;15.90;94.10;;;;;;5050147;28;20025;-56
2022/08/12 05:28:02;;;;;;;10.43;6.05;;;16.00;94.00;;;;;;5049768;28;20087;-58
2022/08/12 05:30:29;;;;;;;8.60;5.97;;;16.10;94.00;;;;;;5050810;28;20029;-56
2022/08/12 05:32:56;;;;;;;12.10;6.90;;;16.10;94.10;;;;;;5049644;28;20025;-58
2022/08/12 05:35:22;;;;;;;11.43;6.40;;;16.20;94.10;;;;;;5049638;28;20081;-58
2022/08/12 05:38:54;;;;;;;9.38;6.07;;;16.30;94.00;;;;;;5050543;28;20444;-58
2022/08/12 05:40:34;;;;;;;11.43;7.15;;;16.40;94.10;;;;;;5050092;28;20429;-60
2022/08/12 05:43:00;;;;;;;14.13;6.07;;;16.50;94.10;;;;;;5050523;28;20021;-57
2022/08/12 05:45:26;;;;;;;8.57;5.93;;;16.50;94.00;;;;;;5054582;28;20070;-59
2022/08/12 05:47:51;;;;;;;11.25;6.60;;;16.60;94.00;;;;;;5053648;28;20039;-59
2022/08/12 05:50:18;;;;;;;10.40;6.80;;;16.80;93.80;;;;;;5054597;28;20520;-60
2022/08/12 05:52:44;;;;;;;13.20;6.75;;;16.90;93.60;;;;;;5054597;28;20057;-60
2022/08/12 05:55:09;;;;;;;9.65;6.93;;;17.00;93.50;;;;;;5053455;28;20055;-66
2022/08/12 05:57:35;;;;;;;11.13;6.93;;;17.10;93.30;;;;;;5054571;28;20047;-67
2022/08/12 06:00:02;;;;;;;9.05;6.28;;;17.20;93.30;;;;;;5054204;28;20024;-69
2022/08/12 06:02:27;;;;;;;8.88;6.18;;;17.30;93.30;;;;;;5053979;28;20025;-68
2022/08/12 06:04:53;;;;;;;11.18;6.50;;;17.40;93.00;;;;;;5052803;28;20027;-65
2022/08/12 06:07:18;;;;;;;12.82;6.20;;;17.50;92.80;;;;;;5054334;28;20485;-68
2022/08/12 06:09:44;;;;;;;10.98;6.63;;;17.60;92.60;;;;;;5053553;28;20369;-59
2022/08/12 06:12:10;;;;;;;10.60;7.05;;;17.70;92.40;;;;;;5053601;28;20492;-59
2022/08/12 06:14:37;;;;;;;8.80;6.47;;;17.80;92.30;;;;;;5054034;28;20020;-58
2022/08/12 06:17:04;;;;;;;12.27;6.90;;;18.00;92.00;;;;;;5052872;28;20029;-58
2022/08/12 06:19:30;;;;;;;9.93;6.63;;;18.10;91.60;;;;;;5052597;28;20013;-58
2022/08/12 06:21:56;;;;;;;7.95;5.65;;;18.20;91.30;;;;;;5053394;28;20032;-57
2022/08/12 06:24:23;;;;;;;10.02;5.82;;;18.30;91.00;;;;;;5051936;28;20377;-59
2022/08/12 06:26:50;;;;;;;7.95;5.55;;;18.30;90.80;;;;;;5053434;28;20090;-59
2022/08/12 06:29:18;;;;;;;8.93;6.10;;;18.40;90.50;;;;;;5053040;28;20053;-59
2022/08/12 06:31:49;;;;;;;9.70;5.85;;;18.50;90.10;;;;;;5053696;28;20517;-59
2022/08/12 06:34:16;;;;;;;10.38;5.78;;;18.60;89.80;;;;;;5053932;28;20059;-58
2022/08/12 06:36:43;;;;;;;8.30;5.65;;;18.70;89.10;;;;;;5053167;28;20100;-59
2022/08/12 06:39:09;;;;;;;9.30;5.93;;;18.70;88.40;;;;;;5053096;28;20521;-59
2022/08/12 06:44:19;;;;;;;7.65;4.50;;;18.90;86.70;;;;;;5052742;28;20519;-59
2022/08/12 06:46:45;;;;;;;7.25;4.88;;;18.90;86.30;;;;;;5053486;28;20148;-59
2022/08/12 06:49:12;;;;;;;7.57;4.88;;;19.00;85.90;;;;;;5053061;28;20028;-60
2022/08/12 06:51:38;;;;;;;6.45;4.53;;;19.20;85.80;;;;;;5051404;28;20477;-57
2022/08/12 06:54:04;;;;;;;7.50;4.57;;;19.30;85.30;;;;;;5051600;28;20017;-59
2022/08/12 06:56:30;;;;;;;10.93;4.97;;;19.30;84.60;;;;;;5052185;28;20029;-59
2022/08/12 06:58:56;;;;;;;9.05;4.93;;;19.50;84.10;;;;;;5052360;28;20013;-58
2022/08/12 07:01:23;;;;;;;9.40;5.10;;;19.50;83.70;;;;;;5053107;28;20027;-58
2022/08/12 07:03:50;;;;;;;7.30;4.35;;;19.60;82.50;;;;;;5052895;28;20032;-59
2022/08/12 07:06:15;;;;;;;7.45;4.47;;;19.80;82.20;;;;;;5052396;28;20060;-59
2022/08/12 07:08:42;;;;;;;6.65;4.82;;;19.90;81.80;;;;;;5053073;28;20064;-57
2022/08/12 07:11:10;;;;;;;7.57;5.22;;;20.00;81.30;;;;;;5052595;28;20074;-63
2022/08/12 07:13:42;;;;;;;7.38;4.82;;;20.10;80.60;;;;;;5052155;28;20104;-59
2022/08/12 07:16:13;;;;;;;8.68;4.88;;;20.30;79.60;;;;;;5052520;28;20037;-58
2022/08/12 07:18:40;;;;;;;9.60;5.07;;;20.30;79.30;;;;;;5052180;28;20064;-58
2022/08/12 07:21:07;;;;;;;8.60;4.63;;;20.40;79.00;;;;;;5051214;28;20025;-59
2022/08/12 07:23:35;;;;;;;9.02;4.25;;;20.50;79.00;;;;;;5051297;28;20017;-59
2022/08/12 07:26:04;;;;;;;6.18;3.95;;;20.60;78.80;;;;;;5050536;28;20481;-59
2022/08/12 07:28:35;;;;;;;5.88;3.97;;;20.70;78.40;;;;;;5052505;28;20464;-60
2022/08/12 07:31:03;;;;;;;;;;;20.80;77.70;;;;;;5052809;28;20094;-58
2022/08/12 07:33:30;;;;;;;7.55;4.47;;;20.80;77.60;;;;;;5051764;28;19912;-59
2022/08/12 07:35:58;;;;;;;6.20;4.55;;;20.90;78.20;;;;;;5052111;28;20088;-59
2022/08/12 07:38:38;;;;;;;6.55;4.35;;;21.10;77.30;;;;;;5052298;28;20076;-60
2022/08/12 07:41:10;;;;;;;4.65;3.35;;;21.30;76.10;;;;;;5051410;28;20025;-58
2022/08/12 07:43:42;;;;;;;7.03;3.33;;;21.40;75.30;;;;;;5052544;28;20024;-62
2022/08/12 07:46:11;;;;;;;4.93;3.08;;;21.50;75.10;;;;;;5050783;28;20055;-64
2022/08/12 07:48:39;;;;;;;8.43;3.25;;;21.60;74.50;;;;;;5051897;28;20029;-66
2022/08/12 07:51:06;;;;;;;4.20;2.92;;;21.70;73.30;;;;;;5052275;28;20025;-63
2022/08/12 07:53:32;;;;;;;4.95;2.45;;;21.80;71.60;;;;;;5051997;28;20032;-62
2022/08/12 07:55:57;;;;;;;5.25;2.78;;;21.90;71.50;;;;;;5050862;28;20029;-66
2022/08/12 07:58:24;;;;;;;5.32;3.33;;;22.00;70.60;;;;;;5052611;28;20499;-66
2022/08/12 08:00:51;;;;;;;5.35;3.50;;;22.20;70.00;;;;;;5051463;28;20063;-64
2022/08/12 08:03:17;;;;;;;4.60;2.85;;;22.30;69.70;;;;;;5052334;28;20052;-62
2022/08/12 08:05:45;;;;;;;6.63;3.15;;;22.40;69.60;;;;;;5052146;28;20029;-67
2022/08/12 08:08:28;;;;;;;7.13;2.65;;;22.50;69.70;;;;;;5051013;28;20029;-63
2022/08/12 08:12:52;;;;;;;4.60;3.25;;;22.60;69.50;;;;;;5051734;28;20028;-59
2022/08/12 08:13:44;;;;;;;5.13;3.33;;;22.80;68.50;;;;;;5051667;28;20044;-59
2022/08/12 08:16:14;;;;;;;4.90;3.42;;;23.00;68.20;;;;;;5050702;28;20481;-59
2022/08/12 08:18:40;;;;;;;6.05;2.95;;;23.10;68.00;;;;;;5051655;28;20048;-59
2022/08/12 08:21:07;;;;;;;8.23;3.25;;;23.20;67.40;;;;;;5051309;28;20104;-59
2022/08/12 08:26:21;;;;;;;4.90;2.97;;;23.50;67.20;;;;;;5051535;28;20040;-59
2022/08/12 08:28:47;;;;;;;5.45;3.40;;;23.60;66.60;;;;;;5050909;28;20135;-59
2022/08/12 08:31:13;;;;;;;6.28;3.25;;;23.70;66.10;;;;;;5051152;28;20028;-60
2022/08/12 08:33:40;;;;;;;5.15;3.20;;;23.80;65.20;;;;;;5051442;28;20095;-61
2022/08/12 08:36:07;;;;;;;5.53;3.50;;;24.00;64.70;;;;;;5050629;28;20428;-59
2022/08/12 08:38:33;;;;;;;5.00;3.30;;;24.10;64.50;;;;;;5051078;28;20052;-59
2022/08/12 08:43:44;;;;;;;5.63;2.50;;;24.40;63.80;;;;;;5050683;28;20108;-59
2022/08/12 08:46:10;;;;;;;6.45;3.22;;;24.50;63.50;;;;;;5051008;28;20044;-58
2022/08/12 08:48:35;;;;;;;5.43;3.10;;;24.50;62.10;;;;;;5051211;28;20095;-61
2022/08/12 08:51:04;;;;;;;4.97;3.08;;;24.60;61.60;;;;;;5050273;28;20013;-59
2022/08/12 08:53:30;;;;;;;5.10;3.17;;;24.70;60.90;;;;;;5049773;28;20032;-59
2022/08/12 08:55:57;;;;;;;5.53;3.53;;;24.80;60.40;;;;;;5050883;28;20021;-59
2022/08/12 08:58:24;;;;;;;7.63;3.17;;;24.80;58.90;;;;;;5050449;28;20021;-59
2022/08/12 09:00:50;;;;;;;3.80;2.60;;;25.00;58.20;;;;;;5050782;28;20146;-59
2022/08/12 09:03:17;;;;;;;3.30;2.65;;;25.10;58.90;;;;;;5051270;28;20489;-59
2022/08/12 09:05:43;;;;;;;5.53;2.90;;;25.30;57.60;;;;;;5049047;28;20021;-59
2022/08/12 09:08:08;;;;;;;5.57;2.72;;;25.40;56.60;;;;;;5050574;28;20041;-59
2022/08/12 09:10:34;;;;;;;4.60;2.47;;;25.50;55.70;;;;;;5050993;28;20017;-60
2022/08/12 09:15:46;;;;;;;3.22;2.20;;;25.70;55.80;;;;;;5051153;28;20508;-59
2022/08/12 09:18:12;;;;;;;3.13;2.20;;;25.80;55.30;;;;;;5050302;28;20021;-59
2022/08/12 09:20:39;;;;;;;4.15;2.35;;;25.90;53.00;;;;;;5054977;28;20025;-59
2022/08/12 09:23:09;;;;;;;2.60;1.92;;;26.00;52.50;;;;;;5054490;28;20052;-59
2022/08/12 09:25:39;;;;;;;3.90;2.70;;;26.10;52.80;;;;;;5054373;28;20470;-59
2022/08/12 09:28:08;;;;;;;3.72;2.28;;;26.20;52.00;;;;;;5054310;28;20104;-59
2022/08/12 09:30:38;;;;;;;3.05;2.30;;;26.30;52.80;;;;;;5053439;28;20021;-59
2022/08/12 09:33:05;;;;;;;4.10;2.47;;;26.40;52.70;;;;;;5053694;28;20495;-59
2022/08/12 09:35:36;;;;;;;3.47;2.30;;;26.40;51.90;;;;;;5054832;28;20086;-59
2022/08/12 09:38:02;;;;;;;6.00;2.03;;;26.50;49.60;;;;;;5054271;28;20401;-58
2022/08/12 09:40:28;;;;;;;4.47;2.53;;;26.60;48.70;;;;;;5054172;28;20079;-66
2022/08/12 09:45:47;;;;;;;3.45;2.25;;;26.80;46.20;;;;;;5054826;28;20051;-61
2022/08/12 09:48:16;;;;;;;3.67;2.60;;;26.90;46.70;;;;;;5053982;28;20361;-68
2022/08/12 09:50:44;;;;;;;5.93;2.50;;;26.90;46.50;;;;;;5054605;28;20047;-66
2022/08/12 09:53:23;;;;;;;3.25;1.85;;;27.00;47.40;;;;;;5053531;28;20024;-60
2022/08/12 09:55:54;;;;;;;4.32;2.50;;;27.10;47.70;;;;;;5054223;28;20017;-60
2022/08/12 09:58:27;;;;;;;3.55;2.63;;;27.10;47.90;;;;;;5054526;28;20028;-67
2022/08/12 10:01:01;;;;;;;3.72;2.17;;;27.20;48.60;;;;;;5053548;28;20086;-64
2022/08/12 10:03:28;;;;;;;4.25;2.55;;;27.30;47.80;;;;;;5054289;28;20517;-63
2022/08/12 10:05:54;;;;;;;3.53;2.20;;;27.30;45.30;;;;;;5053849;28;20032;-60
2022/08/12 10:08:22;;;;;;;4.45;2.60;;;27.40;45.10;;;;;;5053441;28;20131;-60
2022/08/12 10:13:43;;;;;;;3.63;2.20;;;27.60;44.10;;;;;;5054253;28;20090;-61
2022/08/12 10:16:19;;;;;;;3.88;1.95;;;27.70;43.60;;;;;;5053617;28;20620;-59
2022/08/12 10:19:05;;;;;;;3.08;2.30;;;27.80;44.20;;;;;;5053920;28;20035;-59
2022/08/12 10:21:36;;;;;;;3.25;2.15;;;27.80;43.80;;;;;;5051581;28;20029;-60
2022/08/12 10:24:10;;;;;;;4.88;2.40;;;27.70;43.90;;;;;;5053473;28;20017;-59
2022/08/12 10:29:38;;;;;;;5.95;2.30;;;27.80;42.20;;;;;;5053031;28;20040;-60
2022/08/12 10:32:22;;;;;;;4.60;2.58;;;27.80;42.00;;;;;;5053472;28;20021;-60
2022/08/12 10:34:51;;;;;;;3.20;2.38;;;27.80;43.40;;;;;;5053609;28;20020;-60
2022/08/12 10:37:17;;;;;;;5.47;2.13;;;27.90;41.60;;;;;;5052682;28;20078;-60
2022/08/12 10:39:44;;;;;;;6.90;3.28;;;28.10;41.90;;;;;;5052355;28;20033;-59
2022/08/12 10:45:04;;;;;;;2.63;1.60;;;28.20;43.10;;;;;;5053135;28;20132;-59
2022/08/12 10:47:31;;;;;;;3.25;2.30;;;28.20;43.50;;;;;;5053429;28;20044;-60
2022/08/12 10:49:58;;;;;;;4.40;2.42;;;28.20;43.10;;;;;;5052422;28;20440;-60
2022/08/12 10:52:30;;;;;;;4.10;2.20;;;28.30;43.30;;;;;;5053214;28;20021;-60
2022/08/12 10:54:58;;;;;;;2.63;1.80;;;28.30;43.30;;;;;;5053006;28;20462;-60
2022/08/12 10:57:25;;;;;;;3.38;2.55;;;28.30;42.00;;;;;;5052481;28;20104;-62
2022/08/12 10:59:56;;;;;;;3.13;2.30;;;28.40;41.60;;;;;;5052917;28;20084;-60
2022/08/12 11:02:23;;;;;;;3.97;1.95;;;28.40;42.30;;;;;;5052928;28;20083;-60
2022/08/12 11:04:49;;;;;;;3.83;2.00;;;28.40;42.80;;;;;;5052349;28;20018;-59
2022/08/12 11:07:16;;;;;;;3.70;2.13;;;28.50;43.60;;;;;;5052801;28;20033;-60
2022/08/12 11:09:42;;;;;;;2.33;1.80;;;28.50;44.20;;;;;;5053102;28;20013;-60
2022/08/12 11:12:08;;;;;;;3.55;2.00;;;28.50;43.30;;;;;;5050657;28;20041;-60
2022/08/12 11:14:40;;;;;;;2.75;2.10;;;28.60;42.70;;;;;;5051713;28;20029;-60
2022/08/12 11:17:08;;;;;;;4.25;2.20;;;28.60;42.10;;;;;;5052419;28;20021;-59
2022/08/12 11:19:35;;;;;;;3.22;2.40;;;28.60;42.00;;;;;;5050761;28;20353;-60
2022/08/12 11:22:10;;;;;;;3.40;2.30;;;28.60;42.40;;;;;;5052394;28;20474;-59
2022/08/12 11:24:36;;;;;;;3.58;2.65;;;28.70;42.70;;;;;;5051980;28;20500;-59
2022/08/12 11:27:05;;;;;;;4.55;2.40;;;28.70;42.80;;;;;;5052420;28;20155;-60
2022/08/12 11:29:31;;;;;;;3.80;2.05;;;28.70;41.20;;;;;;5052478;28;20139;-60
2022/08/12 11:31:56;;;;;;;3.20;2.22;;;28.70;41.70;;;;;;5051548;28;20096;-59
2022/08/12 11:34:22;;;;;;;3.78;2.20;;;28.70;42.10;;;;;;5052533;28;20371;-61
2022/08/12 11:36:56;;;;;;;2.95;2.00;;;28.70;41.00;;;;;;5051135;28;20044;-61
2022/08/12 11:39:23;;;;;;;2.50;2.00;;;28.70;40.80;;;;;;5051616;28;20049;-59
2022/08/12 11:41:49;;;;;;;4.70;2.92;;;28.80;41.40;;;;;;5050057;28;20431;-59
2022/08/12 11:44:15;;;;;;;3.22;2.40;;;28.90;41.50;;;;;;5052341;28;20186;-59
2022/08/12 11:46:41;;;;;;;4.13;2.30;;;29.00;40.80;;;;;;5051326;28;20032;-59
2022/08/12 11:49:07;;;;;;;3.90;2.10;;;29.10;40.60;;;;;;5052055;28;20032;-59
2022/08/12 11:51:34;;;;;;;5.13;2.20;;;29.10;40.50;;;;;;5033599;28;20117;-62
2022/08/12 11:54:00;;;;;;;3.00;2.30;;;29.20;41.50;;;;;;5031770;28;20156;-65
2022/08/12 11:56:26;;;;;;;2.65;2.13;;;29.20;41.00;;;;;;5043563;28;20470;-61
2022/08/12 11:58:52;;;;;;;2.97;1.95;;;29.30;41.20;;;;;;5051559;28;20025;-62
2022/08/12 12:01:17;;;;;;;3.03;1.80;;;29.40;41.20;;;;;;5049489;28;20029;-66
2022/08/12 12:03:43;;;;;;;2.22;1.90;;;29.40;41.30;;;;;;5050043;28;20021;-61
2022/08/12 12:06:09;;;;;;;3.25;1.90;;;29.50;41.20;;;;;;5051206;28;20057;-61
2022/08/12 12:08:34;;;;;;;3.42;2.28;;;29.50;40.90;;;;;;5049570;28;20071;-61
2022/08/12 12:11:00;;;;;;;3.40;2.10;;;29.50;40.40;;;;;;5051265;28;20025;-60
2022/08/12 12:13:26;;;;;;;4.75;2.13;;;29.50;40.30;;;;;;5051469;28;20044;-61
2022/08/12 12:15:51;;;;;;;3.58;2.20;;;29.50;40.10;;;;;;5050635;28;20056;-61
2022/08/12 12:18:24;;;;;;;2.67;2.15;;;29.60;40.50;;;;;;5051432;28;20017;-60
2022/08/12 12:20:52;;;;;;;4.45;1.95;;;29.70;39.90;;;;;;5050298;28;20059;-59
2022/08/12 12:23:18;;;;;;;5.65;2.33;;;29.60;39.90;;;;;;5031603;28;20029;-60
2022/08/12 12:25:44;;;;;;;2.70;1.92;;;29.70;40.30;;;;;;5031419;28;20436;-60
2022/08/12 12:28:10;;;;;;;4.30;2.58;;;29.70;39.80;;;;;;5030397;28;20462;-60
2022/08/12 12:30:36;;;;;;;2.92;2.10;;;29.70;38.00;;;;;;5031144;28;20017;-60
2022/08/12 12:33:03;;;;;;;2.33;1.60;;;29.80;38.00;;;;;;5030903;28;20097;-60
2022/08/12 12:35:29;;;;;;;2.80;1.90;;;29.80;38.70;;;;;;5030397;28;20052;-61
2022/08/12 12:37:58;;;;;;;3.72;1.98;;;29.80;39.10;;;;;;5048173;28;20032;-60
2022/08/12 12:40:25;;;;;;;5.82;2.20;;;29.80;38.40;;;;;;5050456;28;20478;-60
2022/08/12 12:42:51;;;;;;;3.88;2.28;;;29.90;39.30;;;;;;5049615;28;20036;-60
2022/08/12 12:45:17;;;;;;;3.85;2.20;;;29.90;38.80;;;;;;5050174;28;20398;-60
2022/08/12 12:48:03;;;;;;;3.72;1.90;;;29.90;38.00;;;;;;5050350;28;20029;-61
2022/08/12 12:50:30;;;;;;;2.97;1.92;;;30.00;38.70;;;;;;5048426;28;20144;-60
2022/08/12 12:52:55;;;;;;;2.75;1.98;;;30.00;38.80;;;;;;5049193;28;20028;-60
2022/08/12 12:55:22;;;;;;;4.38;2.28;;;30.00;38.80;;;;;;5048983;28;20401;-60
2022/08/12 12:57:49;;;;;;;3.15;2.10;;;30.10;38.60;;;;;;5049475;28;20600;-60
2022/08/12 13:00:17;;;;;;;2.45;1.65;;;30.20;38.80;;;;;;5050467;28;20021;-60
2022/08/12 13:02:56;;;;;;;3.20;2.13;;;30.20;38.80;;;;;;5048730;28;20020;-60
2022/08/12 13:05:25;;;;;;;2.08;1.83;;;30.30;38.60;;;;;;5050622;28;20017;-60
2022/08/12 13:07:56;;;;;;;2.83;1.83;;;30.30;38.80;;;;;;5049415;28;20032;-60
2022/08/12 13:10:22;;;;;;;4.18;2.25;;;30.30;38.70;;;;;;5049622;28;20499;-62
2022/08/12 13:12:49;;;;;;;2.78;1.92;;;30.40;39.00;;;;;;5050008;28;20147;-60
2022/08/12 13:15:15;;;;;;;2.95;2.03;;;30.40;38.80;;;;;;5050237;28;20029;-60
2022/08/12 13:17:54;;;;;;;2.75;2.00;;;30.40;38.70;;;;;;5048285;28;20123;-60
2022/08/12 13:20:20;;;;;;;2.88;2.00;;;30.40;38.50;;;;;;5048876;28;20112;-61
2022/08/12 13:22:47;;;;;;;2.90;1.95;;;30.40;37.90;;;;;;5048878;28;20102;-60
2022/08/12 13:25:14;;;;;;;4.00;2.10;;;30.50;38.60;;;;;;5048052;28;20013;-60
2022/08/12 13:27:46;;;;;;;2.80;1.90;;;30.50;38.50;;;;;;5050322;28;20114;-60
2022/08/12 13:30:19;;;;;;;2.83;1.80;;;30.50;38.20;;;;;;5050000;28;20037;-61
2022/08/12 13:32:57;;;;;;;6.03;2.17;;;30.60;38.40;;;;;;5049592;28;20136;-60
2022/08/12 13:35:34;;;;;;;3.45;1.90;;;30.70;37.50;;;;;;5048809;28;20465;-63
2022/08/12 13:38:00;;;;;;;2.72;2.08;;;30.70;37.70;;;;;;5049240;28;20067;-61
2022/08/12 13:40:31;;;;;;;3.97;2.13;;;30.70;36.70;;;;;;5049528;28;20029;-66
2022/08/12 13:42:57;;;;;;;3.17;2.25;;;30.70;37.80;;;;;;5048502;28;20025;-68
2022/08/12 13:45:31;;;;;;;2.30;1.77;;;30.70;38.10;;;;;;5049275;28;20036;-65
2022/08/12 13:47:59;;;;;;;3.30;2.03;;;30.80;37.60;;;;;;5048415;28;20033;-68
2022/08/12 13:50:35;;;;;;;2.75;1.98;;;30.80;36.80;;;;;;5045949;28;20467;-65
2022/08/12 13:53:18;;;;;;;3.67;2.00;;;30.90;36.80;;;;;;5040376;28;20044;-68
2022/08/12 13:55:48;;;;;;;3.42;2.10;;;30.90;37.50;;;;;;5049948;28;20036;-66
2022/08/12 13:58:18;;;;;;;3.47;1.73;;;31.00;36.90;;;;;;5050084;28;20025;-70
2022/08/12 14:00:49;;;;;;;3.10;1.95;;;30.90;36.30;;;;;;5048532;28;20071;-60
2022/08/12 14:40:41;;;;;;;2.55;1.77;;;30.70;35.00;;;;;;5108274;27;1236614;-60
2022/08/12 14:43:06;;;;;;;3.28;1.83;;;31.60;35.00;;;;;;5127669;27;20036;-59
2022/08/12 14:45:35;;;;;;;3.40;1.63;;;31.60;34.90;;;;;;5127516;28;20069;-60
2022/08/12 14:48:01;;;;;;;2.00;1.80;;;31.70;35.30;;;;;;5102559;27;20065;-59
2022/08/12 14:50:26;;;;;;;3.72;1.92;;;31.80;34.90;;;;;;5107073;28;20550;-60
2022/08/12 14:52:52;;;;;;;2.58;1.83;;;31.90;35.00;;;;;;5107091;28;20107;-61
2022/08/12 14:55:17;;;;;;;3.13;1.80;;;32.00;34.80;;;;;;5107801;28;20416;-61
2022/08/12 14:57:54;;;;;;;2.33;1.90;;;32.20;34.70;;;;;;5105465;28;20107;-60
2022/08/12 15:03:07;;;;;;;3.28;1.75;;;33.00;34.40;;;;;;5107285;28;20039;-67
2022/08/12 15:05:37;;;;;;;3.92;1.67;;;33.50;34.40;;;;;;5107015;28;20032;-67
2022/08/12 15:08:12;;;;;;;5.27;1.63;;;34.00;33.50;;;;;;5107300;28;20016;-62
2022/08/12 15:10:40;;;;;;;2.40;1.65;;;34.50;32.30;;;;;;5103368;28;20074;-67
2022/08/12 15:13:07;;;;;;;2.10;1.70;;;35.00;32.10;;;;;;5086395;28;20047;-66
2022/08/12 15:15:37;;;;;;;2.72;1.38;;;35.40;31.40;;;;;;5088938;28;20051;-69
2022/08/12 15:18:04;;;;;;;;;;;35.80;31.20;;;;;;5102361;28;20012;-62